Time;durP1;ratioP1;P1;durP2;ratioP2;P2;SDS_P1;SDS_P2;PMS_P1;PMS_P2;Temp;Humidity;BMP_temperature;BMP_pressure;BME280_temperature;BME280_humidity;BME280_pressure;Samples;Min_cycle;Max_cycle;Signal;HPM_P1;HPM_P2
2023/03/14 00:01:14;;;;;;;9.93;3.23;;;12.40;99.90;;;;;;5048340;28;20240;-72
2023/03/14 00:03:41;;;;;;;9.17;3.73;;;12.40;99.90;;;;;;5037596;28;20316;-73
2023/03/14 00:06:08;;;;;;;11.80;3.23;;;12.40;99.90;;;;;;5035323;28;20238;-72
2023/03/14 00:08:35;;;;;;;13.30;3.57;;;12.40;99.90;;;;;;5030288;28;20289;-74
2023/03/14 00:11:07;;;;;;;9.33;3.60;;;12.40;99.90;;;;;;5032507;28;20194;-73
2023/03/14 00:13:34;;;;;;;12.17;3.57;;;12.40;99.90;;;;;;5047645;28;20204;-73
2023/03/14 00:16:10;;;;;;;10.23;3.63;;;12.40;99.90;;;;;;5053278;28;20676;-72
2023/03/14 00:18:37;;;;;;;11.23;3.77;;;12.30;99.90;;;;;;5053297;28;20232;-72
2023/03/14 00:21:06;;;;;;;11.83;3.63;;;12.30;99.90;;;;;;5035315;28;20236;-72
2023/03/14 00:23:34;;;;;;;9.37;3.63;;;12.30;99.90;;;;;;5023058;28;20283;-72
2023/03/14 00:26:04;;;;;;;8.83;3.40;;;12.30;99.90;;;;;;5052484;28;20203;-74
2023/03/14 00:28:30;;;;;;;8.60;2.77;;;12.40;99.90;;;;;;5053202;28;20705;-71
2023/03/14 00:30:57;;;;;;;9.37;3.03;;;12.30;99.90;;;;;;5053387;28;20681;-72
2023/03/14 00:33:24;;;;;;;8.87;2.67;;;12.30;99.90;;;;;;5052739;28;20201;-72
2023/03/14 00:36:08;;;;;;;9.17;3.20;;;12.40;99.90;;;;;;5052024;28;20201;-73
2023/03/14 00:38:36;;;;;;;10.00;3.13;;;12.40;99.90;;;;;;5052922;28;20221;-72
2023/03/14 00:41:08;;;;;;;13.30;3.40;;;12.40;99.90;;;;;;5053027;28;20297;-73
2023/03/14 00:43:35;;;;;;;11.17;3.27;;;12.40;99.90;;;;;;5034830;28;20197;-74
2023/03/14 00:46:02;;;;;;;7.37;3.10;;;12.40;99.90;;;;;;5038611;28;20206;-74
2023/03/14 00:48:29;;;;;;;11.33;3.33;;;12.40;99.90;;;;;;5032917;28;20305;-72
2023/03/14 00:50:56;;;;;;;11.50;3.77;;;12.40;99.90;;;;;;5035647;28;20204;-73
2023/03/14 00:53:23;;;;;;;10.63;2.90;;;12.40;99.90;;;;;;5053029;28;20205;-72
2023/03/14 00:55:50;;;;;;;13.67;3.13;;;12.40;99.90;;;;;;5052259;28;20295;-72
2023/03/14 00:58:18;;;;;;;10.33;2.60;;;12.40;99.90;;;;;;5051944;28;20219;-72
2023/03/14 01:00:45;;;;;;;10.90;2.70;;;12.30;99.90;;;;;;5052770;28;20203;-73
2023/03/14 01:03:14;;;;;;;9.33;3.27;;;12.30;99.90;;;;;;5052627;28;20292;-72
2023/03/14 01:05:40;;;;;;;10.97;2.87;;;12.40;99.90;;;;;;5052955;28;20233;-74
2023/03/14 01:08:08;;;;;;;14.37;3.00;;;12.40;99.90;;;;;;5052459;28;20198;-73
2023/03/14 01:10:40;;;;;;;11.43;3.00;;;12.40;99.90;;;;;;5036413;28;20255;-73
2023/03/14 01:13:07;;;;;;;8.20;2.67;;;12.40;99.90;;;;;;5042609;28;20236;-72
2023/03/14 01:15:35;;;;;;;8.70;3.13;;;12.30;99.90;;;;;;5031384;28;20608;-73
2023/03/14 01:18:02;;;;;;;12.23;3.47;;;12.30;99.90;;;;;;5031980;28;20586;-73
2023/03/14 01:20:29;;;;;;;10.90;3.23;;;12.20;99.90;;;;;;5014743;28;20236;-73
2023/03/14 01:22:56;;;;;;;12.57;3.50;;;12.20;99.90;;;;;;5031219;28;20654;-73
2023/03/14 01:25:22;;;;;;;8.80;2.53;;;12.10;99.90;;;;;;5031916;28;20749;-73
2023/03/14 01:27:49;;;;;;;15.20;2.90;;;12.20;99.90;;;;;;5045893;28;20291;-73
2023/03/14 01:30:16;;;;;;;10.40;2.63;;;12.10;99.90;;;;;;5051884;28;20219;-73
2023/03/14 01:32:43;;;;;;;8.60;2.63;;;12.00;99.90;;;;;;5051730;28;20209;-73
2023/03/14 01:35:09;;;;;;;11.00;2.57;;;12.10;99.90;;;;;;5026094;28;20194;-73
2023/03/14 01:37:36;;;;;;;9.17;2.23;;;12.00;99.90;;;;;;5014443;28;20285;-73
2023/03/14 01:40:05;;;;;;;7.50;2.00;;;11.90;99.90;;;;;;5031393;28;20233;-73
2023/03/14 01:42:32;;;;;;;10.10;2.30;;;11.80;99.90;;;;;;5031776;28;20229;-72
2023/03/14 01:45:01;;;;;;;6.43;2.40;;;11.80;99.90;;;;;;5041590;28;20293;-72
2023/03/14 01:47:27;;;;;;;10.37;2.40;;;11.60;99.90;;;;;;5031166;28;20240;-72
2023/03/14 01:50:10;;;;;;;6.53;1.87;;;11.40;99.90;;;;;;5014355;28;20209;-72
2023/03/14 01:52:46;;;;;;;6.30;2.07;;;11.40;99.90;;;;;;5032411;28;20600;-72
2023/03/14 01:55:18;;;;;;;9.47;2.57;;;11.20;99.90;;;;;;5045694;28;20189;-72
2023/03/14 01:57:49;;;;;;;13.60;2.70;;;11.10;99.90;;;;;;5051767;28;20206;-72
2023/03/14 02:00:19;;;;;;;8.10;2.03;;;11.10;99.90;;;;;;5039491;28;20257;-72
2023/03/14 02:02:50;;;;;;;11.43;2.13;;;11.00;99.90;;;;;;5051630;28;20266;-72
2023/03/14 02:05:21;;;;;;;9.73;2.30;;;10.90;99.90;;;;;;5051793;28;20331;-74
2023/03/14 02:07:56;;;;;;;7.80;2.10;;;10.80;99.90;;;;;;5051274;28;20201;-74
2023/03/14 02:10:28;;;;;;;3.80;1.97;;;10.80;99.90;;;;;;5051427;28;20292;-72
2023/03/14 02:12:56;;;;;;;7.50;2.53;;;10.60;99.90;;;;;;5051591;28;20251;-72
2023/03/14 02:15:23;;;;;;;5.70;2.07;;;10.60;99.90;;;;;;5051196;28;20244;-72
2023/03/14 02:17:52;;;;;;;6.27;2.30;;;10.40;99.90;;;;;;5051137;28;20217;-72
2023/03/14 02:20:40;;;;;;;4.93;2.00;;;10.40;99.90;;;;;;5048899;28;20236;-72
2023/03/14 02:23:07;;;;;;;7.97;2.10;;;10.30;99.90;;;;;;5031324;28;20274;-73
2023/03/14 02:25:43;;;;;;;8.37;2.10;;;10.20;99.90;;;;;;5030797;28;20297;-73
2023/03/14 02:28:10;;;;;;;7.43;2.20;;;10.20;99.90;;;;;;5033259;28;20194;-73
2023/03/14 02:30:38;;;;;;;10.80;2.27;;;10.20;99.90;;;;;;5045330;28;20288;-72
2023/03/14 02:33:09;;;;;;;12.47;3.40;;;10.20;99.90;;;;;;5030289;28;20216;-73
2023/03/14 02:35:53;;;;;;;8.83;2.73;;;10.20;99.90;;;;;;5041731;28;20683;-73
2023/03/14 02:38:30;;;;;;;10.00;3.00;;;10.10;99.90;;;;;;5033989;28;20288;-72
2023/03/14 02:40:57;;;;;;;8.23;2.63;;;10.00;99.90;;;;;;5031295;28;20233;-72
2023/03/14 02:43:24;;;;;;;10.27;3.60;;;10.10;99.90;;;;;;5033517;28;20292;-73
2023/03/14 02:45:52;;;;;;;8.97;2.73;;;10.10;99.90;;;;;;5020522;28;20209;-73
2023/03/14 02:48:51;;;;;;;13.10;3.20;;;10.20;99.90;;;;;;5030967;28;20234;-73
2023/03/14 02:51:19;;;;;;;10.77;3.00;;;10.10;99.90;;;;;;5030404;28;20209;-72
2023/03/14 02:53:46;;;;;;;11.63;3.10;;;10.20;99.90;;;;;;5040121;28;20189;-72
2023/03/14 02:56:12;;;;;;;8.60;3.17;;;10.20;99.90;;;;;;5049772;28;20570;-73
2023/03/14 02:58:39;;;;;;;10.03;3.30;;;10.20;99.90;;;;;;5050682;28;20673;-73
2023/03/14 03:01:06;;;;;;;8.50;4.30;;;10.20;99.90;;;;;;5050737;28;20221;-73
2023/03/14 03:03:33;;;;;;;10.40;3.77;;;10.10;99.90;;;;;;5033158;28;20224;-73
2023/03/14 03:06:00;;;;;;;12.53;4.30;;;10.20;99.90;;;;;;5050042;28;20634;-73
2023/03/14 03:08:28;;;;;;;7.73;4.20;;;10.10;99.90;;;;;;5032166;28;20193;-72
2023/03/14 03:10:56;;;;;;;10.20;4.60;;;10.10;99.90;;;;;;5036238;28;20198;-72
2023/03/14 03:13:23;;;;;;;8.33;4.40;;;10.10;99.90;;;;;;5025438;28;20207;-74
2023/03/14 03:15:50;;;;;;;12.97;4.90;;;10.10;99.90;;;;;;5014856;28;20324;-73
2023/03/14 03:18:16;;;;;;;9.67;4.93;;;10.10;99.90;;;;;;5030212;28;20589;-71
2023/03/14 03:20:43;;;;;;;11.90;4.17;;;10.10;99.90;;;;;;5030279;28;20304;-73
2023/03/14 03:23:10;;;;;;;10.90;4.70;;;10.10;99.90;;;;;;5030265;28;20194;-72
2023/03/14 03:25:36;;;;;;;13.60;5.60;;;10.10;99.90;;;;;;5030381;28;20293;-74
2023/03/14 03:28:07;;;;;;;7.63;4.73;;;10.10;99.90;;;;;;5045070;28;20280;-71
2023/03/14 03:30:38;;;;;;;11.83;4.27;;;10.10;99.90;;;;;;5048408;28;20299;-72
2023/03/14 03:33:05;;;;;;;9.80;3.90;;;10.10;99.90;;;;;;5049986;28;20216;-72
2023/03/14 03:35:32;;;;;;;14.63;4.57;;;10.10;99.90;;;;;;5038622;28;20209;-72
2023/03/14 03:37:59;;;;;;;8.93;3.47;;;10.20;99.90;;;;;;5030483;28;20672;-73
2023/03/14 03:40:26;;;;;;;9.23;3.87;;;10.20;99.90;;;;;;5030212;28;20236;-74
2023/03/14 03:42:52;;;;;;;11.57;3.50;;;10.20;99.90;;;;;;5030382;28;20202;-74
2023/03/14 03:45:19;;;;;;;9.50;3.70;;;10.20;99.90;;;;;;5049601;28;20212;-72
2023/03/14 03:47:46;;;;;;;11.17;4.07;;;10.20;99.90;;;;;;5041491;28;20209;-73
2023/03/14 03:50:12;;;;;;;8.57;3.20;;;10.30;99.90;;;;;;5016439;28;20201;-72
2023/03/14 03:52:39;;;;;;;8.93;3.43;;;10.20;99.90;;;;;;5035042;28;20205;-72
2023/03/14 03:55:06;;;;;;;9.37;3.07;;;10.20;99.90;;;;;;5039113;28;20728;-74
2023/03/14 03:57:33;;;;;;;8.13;3.23;;;10.20;99.90;;;;;;5053597;28;20258;-73
2023/03/14 04:00:00;;;;;;;9.00;3.87;;;10.20;99.90;;;;;;5035984;28;20316;-73
2023/03/14 04:02:26;;;;;;;6.57;3.00;;;10.20;99.90;;;;;;5035855;28;20308;-73
2023/03/14 04:04:53;;;;;;;9.57;3.57;;;10.20;99.90;;;;;;5053832;28;20696;-72
2023/03/14 04:07:20;;;;;;;8.77;2.90;;;10.20;99.90;;;;;;5052467;28;20228;-74
2023/03/14 04:09:47;;;;;;;11.63;3.20;;;10.20;99.90;;;;;;5053748;28;20208;-73
2023/03/14 04:12:13;;;;;;;12.43;3.77;;;10.10;99.90;;;;;;5053316;28;20193;-73
2023/03/14 04:14:40;;;;;;;10.77;4.40;;;10.10;99.90;;;;;;5051726;28;20201;-73
2023/03/14 04:17:08;;;;;;;13.03;3.83;;;10.10;99.90;;;;;;5033092;28;20198;-73
2023/03/14 04:19:34;;;;;;;11.90;3.70;;;10.10;99.90;;;;;;5033668;28;20214;-73
2023/03/14 04:22:01;;;;;;;11.57;3.43;;;10.10;99.90;;;;;;5038991;28;20685;-73
2023/03/14 04:24:30;;;;;;;12.30;3.30;;;10.20;99.90;;;;;;5047453;28;20195;-73
2023/03/14 04:26:57;;;;;;;9.70;3.30;;;10.10;99.90;;;;;;5053580;28;20283;-73
2023/03/14 04:29:24;;;;;;;10.47;2.93;;;10.20;99.90;;;;;;5053094;28;20201;-74
2023/03/14 04:31:50;;;;;;;11.53;3.73;;;10.20;99.90;;;;;;5052696;28;20281;-72
2023/03/14 04:34:17;;;;;;;13.10;3.30;;;10.10;99.90;;;;;;5052153;28;20220;-74
2023/03/14 04:36:44;;;;;;;12.77;3.50;;;10.10;99.90;;;;;;5033141;28;20277;-73
2023/03/14 04:39:11;;;;;;;13.00;4.00;;;10.10;99.90;;;;;;5033034;28;20669;-73
2023/03/14 04:41:38;;;;;;;9.80;3.30;;;10.10;99.90;;;;;;5033122;28;20261;-73
2023/03/14 04:44:05;;;;;;;12.03;3.33;;;10.10;99.90;;;;;;5041020;28;20201;-72
2023/03/14 04:46:31;;;;;;;12.13;3.20;;;10.10;99.90;;;;;;5052678;28;20267;-71
2023/03/14 04:48:58;;;;;;;14.53;3.43;;;10.10;99.90;;;;;;5053122;28;20217;-72
2023/03/14 04:51:27;;;;;;;12.50;3.60;;;10.10;99.90;;;;;;5052932;28;20292;-73
2023/03/14 04:53:54;;;;;;;10.80;3.10;;;10.00;99.90;;;;;;5052628;28;20275;-74
2023/03/14 04:56:21;;;;;;;16.60;3.80;;;10.10;99.90;;;;;;5051689;28;20209;-71
2023/03/14 04:58:48;;;;;;;7.33;3.67;;;10.10;99.90;;;;;;5034301;28;20631;-72
2023/03/14 05:01:15;;;;;;;8.57;2.93;;;10.10;99.90;;;;;;5033211;28;20317;-72
2023/03/14 05:03:41;;;;;;;10.73;3.17;;;10.10;99.90;;;;;;5015054;28;20586;-72
2023/03/14 05:06:08;;;;;;;10.97;3.13;;;10.20;99.90;;;;;;5032317;28;20225;-73
2023/03/14 05:08:35;;;;;;;12.73;3.27;;;10.20;99.90;;;;;;5033146;28;20634;-73
2023/03/14 05:11:02;;;;;;;11.17;3.60;;;10.30;99.90;;;;;;5032705;28;20293;-73
2023/03/14 05:13:29;;;;;;;14.83;3.23;;;10.20;99.90;;;;;;5045961;28;20251;-74
2023/03/14 05:16:07;;;;;;;11.07;3.50;;;10.30;99.90;;;;;;5045200;28;20730;-73
2023/03/14 05:18:34;;;;;;;10.50;3.53;;;10.20;99.90;;;;;;5032065;28;20678;-74
2023/03/14 05:21:02;;;;;;;13.77;4.07;;;10.20;99.90;;;;;;5032601;28;20320;-73
2023/03/14 05:23:29;;;;;;;12.87;3.93;;;10.20;99.90;;;;;;5032426;28;20296;-72
2023/03/14 05:25:56;;;;;;;8.93;3.70;;;10.20;99.90;;;;;;5014535;28;20198;-72
2023/03/14 05:28:22;;;;;;;9.03;3.63;;;10.30;99.90;;;;;;5048790;28;20205;-73
2023/03/14 05:30:49;;;;;;;7.17;2.53;;;10.30;99.90;;;;;;5052616;28;20212;-72
2023/03/14 05:33:16;;;;;;;10.23;3.07;;;10.30;99.90;;;;;;5032529;28;20303;-74
2023/03/14 05:35:43;;;;;;;8.57;3.30;;;10.40;99.90;;;;;;5042449;28;20232;-74
2023/03/14 05:38:10;;;;;;;9.10;2.80;;;10.30;99.90;;;;;;5031977;28;20206;-72
2023/03/14 05:40:36;;;;;;;7.90;2.67;;;10.30;99.90;;;;;;5031618;28;20218;-72
2023/03/14 05:43:03;;;;;;;9.43;2.80;;;10.30;99.90;;;;;;5031852;28;20228;-73
2023/03/14 05:45:30;;;;;;;11.50;3.13;;;10.30;99.90;;;;;;5051553;28;20292;-72
2023/03/14 05:47:58;;;;;;;9.50;3.30;;;10.40;99.90;;;;;;5054482;28;20215;-73
2023/03/14 05:50:25;;;;;;;8.07;3.00;;;10.40;99.90;;;;;;5042701;28;20218;-71
2023/03/14 05:52:52;;;;;;;8.37;3.50;;;10.30;99.90;;;;;;5020875;28;20219;-73
2023/03/14 05:55:19;;;;;;;11.97;3.50;;;10.30;99.90;;;;;;5051588;28;20201;-72
2023/03/14 05:57:45;;;;;;;11.00;3.67;;;10.30;99.90;;;;;;5034396;28;20214;-72
2023/03/14 06:00:13;;;;;;;10.93;3.50;;;10.20;99.90;;;;;;5023131;28;20240;-72
2023/03/14 06:02:39;;;;;;;12.20;4.27;;;10.20;99.90;;;;;;5046505;28;20264;-72
2023/03/14 06:05:07;;;;;;;9.07;3.63;;;10.20;99.90;;;;;;5024692;28;20205;-72
2023/03/14 06:07:34;;;;;;;10.43;3.73;;;10.20;99.90;;;;;;5050476;28;20206;-71
2023/03/14 06:10:00;;;;;;;12.77;4.47;;;10.20;99.90;;;;;;5040708;28;20754;-71
2023/03/14 06:12:28;;;;;;;8.30;3.47;;;10.10;99.90;;;;;;5039899;28;20237;-71
2023/03/14 06:14:54;;;;;;;12.23;4.10;;;10.00;99.90;;;;;;5050855;28;20244;-71
2023/03/14 06:17:21;;;;;;;10.40;3.50;;;10.00;99.90;;;;;;5049727;28;20216;-71
2023/03/14 06:19:48;;;;;;;10.83;4.07;;;10.00;99.90;;;;;;5050743;28;20212;-73
2023/03/14 06:22:15;;;;;;;12.87;4.33;;;10.00;99.90;;;;;;5037603;28;20226;-72
2023/03/14 06:24:42;;;;;;;9.23;4.20;;;10.00;99.90;;;;;;5041097;28;20576;-71
2023/03/14 06:27:08;;;;;;;11.50;4.30;;;10.00;99.90;;;;;;5042741;28;20894;-72
2023/03/14 06:29:35;;;;;;;11.03;3.97;;;10.00;99.90;;;;;;5023470;28;20227;-73
2023/03/14 06:32:02;;;;;;;8.37;3.83;;;9.90;99.90;;;;;;5038197;28;20330;-73
2023/03/14 06:34:29;;;;;;;8.83;3.80;;;10.00;99.90;;;;;;5048009;28;20606;-72
2023/03/14 06:36:55;;;;;;;8.77;4.10;;;10.00;99.90;;;;;;5039879;28;20659;-71
2023/03/14 06:39:22;;;;;;;12.17;4.10;;;10.00;99.90;;;;;;5048364;28;20295;-72
2023/03/14 06:41:49;;;;;;;10.50;3.67;;;9.90;99.90;;;;;;5048586;28;20220;-72
2023/03/14 06:44:15;;;;;;;7.70;3.80;;;10.00;99.90;;;;;;5049928;28;20197;-72
2023/03/14 06:46:42;;;;;;;11.33;3.90;;;9.90;99.90;;;;;;5049373;28;20207;-72
2023/03/14 06:49:09;;;;;;;10.40;3.83;;;9.90;99.90;;;;;;5048709;28;20300;-72
2023/03/14 06:51:36;;;;;;;6.97;3.70;;;9.90;99.90;;;;;;5035904;28;20764;-71
2023/03/14 06:54:03;;;;;;;8.07;3.80;;;9.90;99.90;;;;;;5035057;28;20209;-72
2023/03/14 06:56:29;;;;;;;9.37;3.83;;;10.00;99.90;;;;;;5024894;28;20300;-73
2023/03/14 06:58:56;;;;;;;7.83;3.70;;;10.00;99.90;;;;;;5047320;28;20237;-71
2023/03/14 07:01:25;;;;;;;11.87;4.30;;;10.10;99.90;;;;;;5046738;28;20234;-72
2023/03/14 07:03:52;;;;;;;9.83;3.67;;;10.10;99.90;;;;;;5044577;28;20221;-71
2023/03/14 07:06:19;;;;;;;9.90;4.70;;;10.10;99.90;;;;;;5044446;28;20317;-71
2023/03/14 07:08:46;;;;;;;11.53;4.90;;;10.00;99.90;;;;;;5043355;28;20681;-70
2023/03/14 07:11:13;;;;;;;13.97;4.57;;;10.00;99.90;;;;;;5040955;28;20202;-71
2023/03/14 07:13:39;;;;;;;11.63;4.80;;;10.00;99.90;;;;;;5022612;28;20288;-70
2023/03/14 07:16:07;;;;;;;13.50;4.87;;;10.00;99.90;;;;;;5036728;28;20732;-70
2023/03/14 07:18:34;;;;;;;3.07;1.53;;;10.00;99.90;;;;;;5029569;28;20570;-70
2023/03/14 07:21:01;;;;;;;2.63;1.27;;;9.60;99.90;;;;;;5037850;28;20418;-69
2023/03/14 07:23:28;;;;;;;2.20;1.37;;;9.30;99.90;;;;;;5050137;28;20192;-70
2023/03/14 07:25:54;;;;;;;2.13;1.10;;;9.20;99.90;;;;;;5050120;28;20675;-70
2023/03/14 07:28:22;;;;;;;2.50;1.00;;;9.00;99.90;;;;;;5032397;28;20756;-70
2023/03/14 07:30:49;;;;;;;1.70;1.00;;;8.90;99.90;;;;;;5048731;28;20681;-70
2023/03/14 07:33:16;;;;;;;0.93;0.77;;;8.90;99.90;;;;;;5050303;28;20266;-71
2023/03/14 07:35:43;;;;;;;3.17;0.97;;;8.80;99.90;;;;;;5028205;28;20279;-69
2023/03/14 07:38:10;;;;;;;2.20;1.10;;;8.70;99.90;;;;;;5050315;28;20203;-71
2023/03/14 07:40:36;;;;;;;3.60;2.47;;;8.70;99.90;;;;;;5032378;28;20226;-70
2023/03/14 07:43:03;;;;;;;3.43;1.13;;;8.60;99.90;;;;;;5035308;28;20212;-70
2023/03/14 07:45:30;;;;;;;2.93;0.90;;;8.60;99.90;;;;;;5048406;28;20295;-70
2023/03/14 07:47:57;;;;;;;2.43;0.90;;;8.50;99.90;;;;;;5032392;28;20251;-71
2023/03/14 07:50:27;;;;;;;3.40;1.00;;;8.40;99.90;;;;;;5030118;28;20210;-70
2023/03/14 07:52:55;;;;;;;1.57;0.80;;;8.40;99.90;;;;;;5015994;28;20288;-70
2023/03/14 07:55:21;;;;;;;2.20;1.00;;;8.30;99.90;;;;;;5045486;28;20280;-70
2023/03/14 07:57:48;;;;;;;1.60;0.90;;;8.20;99.90;;;;;;5034551;28;20198;-71
2023/03/14 08:00:15;;;;;;;3.43;1.20;;;8.20;99.90;;;;;;5032456;28;20202;-70
2023/03/14 08:02:42;;;;;;;3.80;1.30;;;8.10;99.90;;;;;;5036810;28;20245;-71
2023/03/14 08:05:10;;;;;;;1.00;1.00;;;8.10;99.90;;;;;;5049939;28;20198;-71
2023/03/14 08:07:37;;;;;;;2.80;1.40;;;8.10;99.90;;;;;;5049924;28;20704;-72
2023/03/14 08:10:04;;;;;;;3.10;1.10;;;8.00;99.90;;;;;;5032348;28;20284;-71
2023/03/14 08:12:31;;;;;;;3.03;1.30;;;8.00;99.90;;;;;;5049975;28;20284;-71
2023/03/14 08:14:59;;;;;;;2.17;1.50;;;8.00;99.90;;;;;;5049731;28;20222;-71
2023/03/14 08:17:26;;;;;;;3.67;2.30;;;8.00;99.90;;;;;;5049830;28;20213;-70
2023/03/14 08:19:54;;;;;;;4.97;1.60;;;7.90;99.90;;;;;;5049670;28;20206;-72
2023/03/14 08:22:21;;;;;;;6.27;1.30;;;7.80;99.90;;;;;;5049758;28;20261;-71
2023/03/14 08:24:47;;;;;;;2.63;1.70;;;7.70;99.90;;;;;;5049757;28;20204;-71
2023/03/14 08:27:14;;;;;;;6.20;1.63;;;7.60;99.90;;;;;;5049851;28;20295;-71
2023/03/14 08:29:41;;;;;;;7.60;1.70;;;7.30;99.90;;;;;;5049607;28;20244;-70
2023/03/14 08:32:08;;;;;;;3.60;1.30;;;7.30;99.90;;;;;;5052822;28;20257;-70
2023/03/14 08:34:35;;;;;;;6.83;1.10;;;7.10;99.90;;;;;;5035687;28;20211;-71
2023/03/14 08:37:02;;;;;;;3.30;1.93;;;7.10;99.90;;;;;;5053499;28;20312;-73
2023/03/14 08:39:36;;;;;;;5.17;1.43;;;6.90;99.90;;;;;;5053452;28;20243;-72
2023/03/14 08:42:03;;;;;;;4.73;1.10;;;6.90;99.90;;;;;;5053409;28;20227;-73
2023/03/14 08:44:30;;;;;;;3.93;1.40;;;6.80;99.90;;;;;;5035637;28;20206;-71
2023/03/14 08:46:57;;;;;;;4.60;1.73;;;6.80;99.90;;;;;;5053120;28;20534;-71
2023/03/14 08:49:24;;;;;;;7.50;1.37;;;6.80;99.90;;;;;;5053170;28;20223;-71
2023/03/14 08:51:50;;;;;;;6.50;1.30;;;6.80;99.90;;;;;;5052736;28;20203;-73
2023/03/14 08:54:18;;;;;;;5.10;1.10;;;6.70;99.90;;;;;;5052896;28;20203;-72
2023/03/14 08:56:45;;;;;;;2.80;1.20;;;6.60;99.90;;;;;;5035078;28;20195;-70
2023/03/14 08:59:12;;;;;;;2.33;1.20;;;6.60;99.90;;;;;;5053383;28;20214;-71
2023/03/14 09:01:38;;;;;;;5.13;1.43;;;6.60;99.90;;;;;;5052877;28;20308;-71
2023/03/14 09:04:06;;;;;;;3.93;1.47;;;6.70;99.90;;;;;;5052930;28;20563;-72
2023/03/14 09:06:33;;;;;;;5.43;1.40;;;6.70;99.90;;;;;;5052451;28;20234;-72
2023/03/14 09:09:00;;;;;;;2.50;1.20;;;6.70;99.90;;;;;;5052688;28;20230;-73
2023/03/14 09:11:26;;;;;;;2.03;1.03;;;6.70;99.90;;;;;;5053073;28;20200;-71
2023/03/14 09:13:53;;;;;;;1.43;0.80;;;6.70;99.90;;;;;;5052574;28;20196;-71
2023/03/14 09:16:20;;;;;;;3.70;1.33;;;6.80;99.90;;;;;;5052375;28;20206;-72
2023/03/14 09:18:48;;;;;;;5.13;1.00;;;6.80;99.90;;;;;;5052417;28;20257;-71
2023/03/14 09:21:15;;;;;;;2.60;1.50;;;6.80;99.90;;;;;;5052354;28;20810;-71
2023/03/14 09:23:42;;;;;;;3.77;1.17;;;6.80;99.90;;;;;;5052663;28;20252;-69
2023/03/14 09:26:10;;;;;;;1.40;0.90;;;6.90;99.90;;;;;;5052065;28;20635;-71
2023/03/14 09:28:37;;;;;;;4.10;1.10;;;7.00;99.90;;;;;;5052420;28;20255;-70
2023/03/14 09:31:09;;;;;;;3.10;1.10;;;7.00;99.90;;;;;;5034494;28;20256;-73
2023/03/14 09:33:36;;;;;;;5.27;1.33;;;7.00;99.90;;;;;;5034302;28;20268;-72
2023/03/14 09:36:04;;;;;;;3.70;1.00;;;7.20;99.90;;;;;;5052420;28;20227;-70
2023/03/14 09:38:32;;;;;;;5.10;1.53;;;7.20;99.90;;;;;;5035137;28;20207;-72
2023/03/14 09:41:01;;;;;;;4.63;1.10;;;7.30;99.90;;;;;;5052388;28;20200;-71
2023/03/14 09:43:31;;;;;;;4.73;1.10;;;7.30;99.90;;;;;;5051278;28;20292;-72
2023/03/14 09:46:00;;;;;;;6.60;1.67;;;7.40;99.90;;;;;;5052079;28;20207;-71
2023/03/14 09:48:30;;;;;;;5.37;1.37;;;7.40;99.90;;;;;;5051790;28;20715;-72
2023/03/14 09:50:59;;;;;;;8.17;1.50;;;7.40;99.90;;;;;;5051756;28;20240;-71
2023/03/14 09:53:41;;;;;;;8.33;1.47;;;7.40;99.90;;;;;;5051660;28;20284;-72
2023/03/14 09:56:19;;;;;;;8.10;1.47;;;7.40;99.90;;;;;;5017424;28;20722;-72
2023/03/14 09:58:52;;;;;;;7.70;1.50;;;7.40;99.90;;;;;;5051733;28;20200;-72
2023/03/14 10:01:30;;;;;;;9.00;1.60;;;7.50;99.90;;;;;;5051823;28;20316;-72
2023/03/14 10:04:09;;;;;;;10.30;2.17;;;7.50;99.90;;;;;;5033995;28;20213;-73
2023/03/14 10:06:36;;;;;;;14.03;1.97;;;7.40;99.90;;;;;;5033629;28;20239;-72
2023/03/14 10:09:05;;;;;;;16.37;3.00;;;7.40;99.90;;;;;;5051439;28;20607;-72
2023/03/14 10:11:32;;;;;;;13.83;2.20;;;7.40;99.90;;;;;;5051717;28;20619;-74
2023/03/14 10:14:04;;;;;;;14.30;3.13;;;7.40;99.90;;;;;;5051057;28;20553;-72
2023/03/14 10:16:50;;;;;;;11.77;2.10;;;7.40;99.90;;;;;;5051356;28;20205;-71
2023/03/14 10:19:17;;;;;;;6.57;1.60;;;7.50;99.90;;;;;;5051242;28;20220;-72
2023/03/14 10:21:52;;;;;;;11.90;2.80;;;7.70;99.90;;;;;;5051365;28;20234;-73
2023/03/14 10:24:31;;;;;;;18.63;3.83;;;7.90;99.90;;;;;;5034275;28;20220;-73
2023/03/14 10:27:01;;;;;;;8.07;2.13;;;8.00;99.90;;;;;;5051232;28;20216;-72
2023/03/14 10:29:29;;;;;;;8.10;1.90;;;8.00;99.90;;;;;;5033142;28;20209;-71
2023/03/14 10:32:18;;;;;;;17.00;3.17;;;7.80;99.90;;;;;;5051299;28;20224;-70
2023/03/14 10:34:45;;;;;;;16.90;2.83;;;7.40;99.90;;;;;;5051267;28;20215;-70
2023/03/14 10:37:21;;;;;;;11.17;2.63;;;6.90;99.90;;;;;;5033571;28;20196;-70
2023/03/14 10:39:54;;;;;;;12.27;2.30;;;6.70;99.90;;;;;;5051208;28;20216;-71
2023/03/14 10:42:31;;;;;;;20.50;2.63;;;6.70;99.90;;;;;;5033228;28;20277;-71
2023/03/14 10:45:02;;;;;;;19.43;3.50;;;6.70;99.90;;;;;;5050813;28;20204;-71
2023/03/14 10:47:29;;;;;;;18.83;3.00;;;6.70;99.90;;;;;;5050812;28;20221;-72
2023/03/14 10:49:57;;;;;;;17.87;3.10;;;6.80;99.90;;;;;;5050901;28;20255;-71
2023/03/14 10:52:31;;;;;;;14.80;2.87;;;6.80;99.90;;;;;;5051071;28;20208;-73
2023/03/14 10:55:18;;;;;;;13.00;3.07;;;6.80;99.90;;;;;;5044347;28;20223;-72
2023/03/14 10:57:44;;;;;;;16.40;2.83;;;6.90;99.90;;;;;;5050081;28;20675;-71
2023/03/14 11:00:22;;;;;;;13.33;3.00;;;7.10;99.90;;;;;;5050911;28;20247;-71
2023/03/14 11:02:49;;;;;;;19.07;3.30;;;7.20;99.90;;;;;;5033111;28;20332;-71
2023/03/14 11:05:34;;;;;;;15.23;2.93;;;7.40;99.90;;;;;;5050695;28;20210;-72
2023/03/14 11:08:06;;;;;;;24.47;3.33;;;7.40;99.90;;;;;;5032575;28;20280;-72
2023/03/14 11:10:37;;;;;;;20.73;3.93;;;7.40;99.90;;;;;;5033278;28;20211;-71
2023/03/14 11:13:19;;;;;;;17.67;4.97;;;7.40;99.90;;;;;;5050334;28;20227;-73
2023/03/14 11:16:13;;;;;;;17.63;3.50;;;7.50;99.90;;;;;;5050363;28;20204;-71
2023/03/14 11:19:03;;;;;;;16.50;3.00;;;7.50;99.90;;;;;;5050798;28;20223;-72
2023/03/14 11:21:29;;;;;;;20.33;4.83;;;7.50;99.90;;;;;;5050601;28;20275;-73
2023/03/14 11:24:14;;;;;;;19.73;2.80;;;7.40;99.90;;;;;;5050225;28;20256;-72
2023/03/14 11:27:28;;;;;;;17.87;3.17;;;7.50;99.90;;;;;;5050414;28;20221;-73
2023/03/14 11:30:39;;;;;;;19.10;3.33;;;7.50;99.90;;;;;;5032711;28;20657;-72
2023/03/14 11:33:14;;;;;;;19.27;4.07;;;7.60;99.90;;;;;;5050556;28;20213;-73
2023/03/14 11:35:46;;;;;;;23.57;3.13;;;7.70;99.90;;;;;;5050593;28;20280;-72
2023/03/14 11:38:34;;;;;;;14.03;3.20;;;7.80;99.90;;;;;;5050098;28;20609;-72
2023/03/14 11:41:01;;;;;;;20.00;2.47;;;7.80;99.90;;;;;;5050450;28;20245;-72
2023/03/14 11:43:41;;;;;;;20.07;3.67;;;7.80;99.90;;;;;;5050012;28;20261;-74
2023/03/14 11:46:17;;;;;;;8.47;2.30;;;8.00;99.90;;;;;;5050242;28;20201;-73
2023/03/14 11:49:11;;;;;;;15.33;3.00;;;8.10;99.90;;;;;;5050317;28;20221;-73
2023/03/14 11:51:46;;;;;;;24.97;2.87;;;8.30;99.90;;;;;;5050072;28;20198;-73
2023/03/14 11:54:31;;;;;;;13.13;3.90;;;8.30;99.90;;;;;;5050197;28;20203;-73
2023/03/14 11:57:03;;;;;;;12.87;3.40;;;8.40;99.90;;;;;;5047085;28;20567;-73
2023/03/14 11:59:33;;;;;;;13.23;2.13;;;8.60;99.90;;;;;;5032226;28;20203;-74
2023/03/14 12:02:05;;;;;;;12.33;2.70;;;8.70;99.90;;;;;;5049903;28;20642;-74
2023/03/14 12:04:41;;;;;;;14.33;2.90;;;8.70;99.90;;;;;;5049970;28;20213;-77
2023/03/14 12:07:24;;;;;;;11.97;2.43;;;8.80;99.90;;;;;;5035106;28;20230;-74
2023/03/14 12:09:53;;;;;;;10.17;1.67;;;8.90;99.90;;;;;;5053949;28;20202;-74
2023/03/14 12:12:25;;;;;;;11.93;2.20;;;8.90;99.90;;;;;;5053778;28;20620;-72
2023/03/14 12:14:55;;;;;;;5.03;1.60;;;8.90;99.90;;;;;;5053870;28;20250;-73
2023/03/14 12:17:43;;;;;;;11.57;2.23;;;8.80;99.90;;;;;;5053613;28;20271;-75
2023/03/14 12:20:15;;;;;;;14.73;2.13;;;8.90;99.90;;;;;;5053857;28;20549;-73
2023/03/14 12:22:55;;;;;;;12.13;2.63;;;8.90;99.90;;;;;;5054016;28;20310;-73
2023/03/14 12:25:24;;;;;;;12.00;2.80;;;8.90;99.90;;;;;;5036095;28;20203;-73
2023/03/14 12:27:54;;;;;;;6.67;2.03;;;9.00;99.90;;;;;;5053215;28;20198;-76
2023/03/14 12:30:29;;;;;;;13.87;2.50;;;9.10;99.90;;;;;;5053470;28;20222;-75
2023/03/14 12:33:09;;;;;;;12.93;2.90;;;9.20;99.90;;;;;;5053697;28;20238;-73
2023/03/14 12:36:02;;;;;;;11.77;2.07;;;9.40;99.90;;;;;;5035499;28;20262;-74
2023/03/14 12:38:35;;;;;;;11.50;2.60;;;9.40;99.90;;;;;;5053387;28;20216;-74
2023/03/14 12:41:29;;;;;;;13.63;2.30;;;9.30;99.90;;;;;;5053289;28;20208;-74
2023/03/14 12:43:56;;;;;;;9.67;2.40;;;9.20;99.90;;;;;;5053179;28;20210;-76
2023/03/14 12:46:26;;;;;;;10.70;2.30;;;9.00;99.90;;;;;;5053832;28;20210;-75
2023/03/14 12:49:05;;;;;;;9.63;2.00;;;8.70;99.90;;;;;;5029424;28;20223;-74
2023/03/14 12:51:41;;;;;;;7.13;1.67;;;8.70;99.90;;;;;;5044226;28;20204;-75
2023/03/14 12:54:46;;;;;;;5.97;1.80;;;8.60;99.90;;;;;;5053296;28;20282;-76
2023/03/14 12:57:38;;;;;;;6.77;1.70;;;8.60;99.90;;;;;;5052380;28;20207;-76
2023/03/14 13:00:29;;;;;;;6.37;1.50;;;8.60;99.90;;;;;;5035377;28;20194;-75